Columbia, Missouri
Current Conditions -  °F | °C
As of 7:54 PM on Friday 21 Nov 2014 (Local Time) from KCOU Reporting Station
Overcast Overcast  
Wind Chill: 39°   Ceiling: 2000
Heat Index: 44°   Visibility: 10mi
Dew Point: 28°   Wind: 10mph
Humidity: 53%   Direction: 140°SE
Pressure: 30.16"   Gusts: NA
Location:  38.95°N, 92.33°W
Report Text: KCOU 220154Z 14009KT 10SM OVC020 07/M02 A3016 RMK AO2 SLP220 T00671022
Loading
Personal Weather Stations






























Interactive Weather Map New forecast layout! Learn more

10-Day Weather Forecast

Advertisements
Track Severe Weather on mobile